createdAt,value
2023-01-02T00:02:03.579Z,100294.54
2023-01-02T00:07:07.200Z,100297.58
2023-01-02T00:12:10.814Z,100306.42
2023-01-02T00:17:14.434Z,100308.16
2023-01-02T00:22:17.953Z,100305.77
2023-01-02T00:27:21.577Z,100314.70
2023-01-02T00:32:25.192Z,100315.77
2023-01-02T00:37:28.698Z,100322.61
2023-01-02T00:42:32.225Z,100319.45
2023-01-02T00:47:35.952Z,100322.53
2023-01-02T00:52:39.352Z,100322.47
2023-01-02T00:57:45.425Z,100321.16
2023-01-02T01:02:49.097Z,100315.83
2023-01-02T01:07:54.611Z,100313.91
2023-01-02T01:12:58.122Z,100315.18
2023-01-02T01:18:01.968Z,100325.23
2023-01-02T01:23:05.767Z,100322.73
2023-01-02T01:28:09.281Z,100323.02
2023-01-02T01:33:12.901Z,100313.19
2023-01-02T01:38:16.414Z,100304.34
2023-01-02T01:43:43.597Z,100308.77
2023-01-02T01:48:50.481Z,100304.70
2023-01-02T01:54:00.553Z,100310.09
2023-01-02T01:59:05.191Z,100308.01
2023-01-02T02:04:10.878Z,100302.70
2023-01-02T02:09:19.402Z,100310.11
2023-01-02T02:14:22.803Z,100319.84
2023-01-02T02:19:59.196Z,100318.73
2023-01-02T02:25:30.250Z,100327.38
2023-01-02T02:30:43.599Z,100333.52
2023-01-02T02:36:07.697Z,100337.52
2023-01-02T02:42:05.176Z,100343.02
2023-01-02T02:47:17.607Z,100345.59
2023-01-02T02:52:29.313Z,100343.60
2023-01-02T02:57:33.755Z,100342.31
2023-01-02T03:02:37.589Z,100354.14
2023-01-02T03:08:02.188Z,100342.20
2023-01-02T03:13:41.626Z,100331.73
2023-01-02T03:19:09.528Z,100331.14
2023-01-02T03:24:18.678Z,100316.58
2023-01-02T03:29:48.504Z,100305.97
2023-01-02T03:34:54.056Z,100299.39
2023-01-02T03:40:03.114Z,100295.74
2023-01-02T03:45:14.931Z,100294.67
2023-01-02T03:50:45.779Z,100284.26
2023-01-02T03:56:00.156Z,100284.08
2023-01-02T04:01:12.465Z,100272.63
2023-01-02T04:06:21.936Z,100263.77
2023-01-02T04:11:27.715Z,100260.75
2023-01-02T04:16:36.686Z,100261.88
2023-01-02T04:21:42.208Z,100261.80
2023-01-02T04:26:51.656Z,100259.94
2023-01-02T04:32:22.823Z,100249.52
2023-01-02T04:37:41.389Z,100248.30
2023-01-02T04:42:45.215Z,100252.73
2023-01-02T04:47:49.751Z,100252.66
2023-01-02T04:52:53.275Z,100250.36
2023-01-02T04:57:58.143Z,100237.58
2023-01-02T05:03:05.546Z,100231.97
2023-01-02T05:08:15.662Z,100222.52
2023-01-02T05:13:19.921Z,100213.59
2023-01-02T05:18:23.647Z,100214.26
2023-01-02T05:23:45.595Z,100210.55
2023-01-02T05:28:53.462Z,100208.71
2023-01-02T05:33:59.747Z,100207.48
2023-01-02T05:39:03.512Z,100197.42
2023-01-02T05:44:11.304Z,100176.06
2023-01-02T05:49:14.743Z,100165.24
2023-01-02T05:54:18.258Z,100154.27
2023-01-02T05:59:21.974Z,100146.62
2023-01-02T06:04:25.490Z,100134.29
2023-01-02T06:09:29.008Z,100127.72
2023-01-02T06:14:32.639Z,100117.49
2023-01-02T06:19:36.357Z,100113.20
2023-01-02T06:24:40.069Z,100099.07
2023-01-02T06:29:43.582Z,100094.63
2023-01-02T06:34:47.210Z,100094.67
2023-01-02T06:39:50.719Z,100085.55
2023-01-02T06:44:54.234Z,100081.02
2023-01-02T06:49:58.362Z,100074.58
2023-01-02T06:55:01.781Z,100063.59
2023-01-02T07:00:05.903Z,100064.13
2023-01-02T07:05:11.271Z,100063.55
2023-01-02T07:10:14.778Z,100058.29
2023-01-02T07:15:18.715Z,100050.02
2023-01-02T07:20:22.528Z,100042.32
2023-01-02T07:25:26.043Z,100045.47
2023-01-02T07:30:29.611Z,100051.16
2023-01-02T07:35:33.383Z,100059.69
2023-01-02T07:40:37.100Z,100056.12
2023-01-02T07:45:44.919Z,100045.45
2023-01-02T07:50:51.505Z,100035.53
2023-01-02T07:55:56.967Z,100031.27
2023-01-02T08:01:09.833Z,100033.36
2023-01-02T08:06:15.596Z,100022.71
2023-01-02T08:11:22.277Z,100016.62
2023-01-02T08:16:25.915Z,100015.17
2023-01-02T08:21:29.292Z,100014.81
2023-01-02T08:26:33.007Z,100015.18
2023-01-02T08:31:41.813Z,100019.58
2023-01-02T08:36:47.219Z,100018.77
2023-01-02T08:41:50.829Z,100009.10
2023-01-02T08:46:54.238Z,100006.05
2023-01-02T08:51:57.757Z,100000.85
2023-01-02T08:57:01.884Z,100000.31
2023-01-02T09:02:05.618Z,99996.95
2023-01-02T09:07:09.538Z,99987.70
2023-01-02T09:12:13.046Z,99984.88
2023-01-02T09:17:16.668Z,99976.52
2023-01-02T09:22:20.387Z,99966.84
2023-01-02T09:27:23.900Z,99958.43
2023-01-02T09:32:27.426Z,99960.20
2023-01-02T09:37:30.946Z,99960.92
2023-01-02T09:42:34.752Z,99939.09
2023-01-02T09:47:41.867Z,99935.97
2023-01-02T09:52:54.810Z,99934.69
2023-01-02T09:58:18.273Z,99931.42
2023-01-02T10:03:40.681Z,99929.39
2023-01-02T10:09:14.555Z,99916.41
2023-01-02T10:14:44.754Z,99920.77
2023-01-02T10:19:54.767Z,99914.94
2023-01-02T10:25:19.074Z,99911.65
2023-01-02T10:30:24.463Z,99907.16
2023-01-02T10:35:47.612Z,99902.63
2023-01-02T10:40:52.067Z,99909.09
2023-01-02T10:45:56.072Z,99909.55
2023-01-02T10:51:04.731Z,99905.59
2023-01-02T10:56:20.658Z,99899.23
2023-01-02T11:01:24.455Z,99896.59
2023-01-02T11:06:39.461Z,99894.79
2023-01-02T11:11:51.234Z,99897.94
2023-01-02T11:16:58.839Z,99893.91
2023-01-02T11:22:02.560Z,99890.70
2023-01-02T11:27:06.082Z,99886.27
2023-01-02T11:32:23.013Z,99884.38
2023-01-02T11:37:27.749Z,99869.77
2023-01-02T11:43:07.411Z,99857.59
2023-01-02T11:48:15.751Z,99857.80
2023-01-02T11:53:29.499Z,99862.70
2023-01-02T11:58:45.402Z,99858.16
2023-01-02T12:03:49.256Z,99852.25
2023-01-02T12:08:58.997Z,99834.79
2023-01-02T12:14:18.887Z,99832.92
2023-01-02T12:19:47.183Z,99833.81
2023-01-02T12:25:02.375Z,99823.98
2023-01-02T12:30:13.735Z,99823.23
2023-01-02T12:35:33.261Z,99821.55
2023-01-02T12:40:50.196Z,99817.54
2023-01-02T12:46:11.567Z,99818.72
2023-01-02T12:51:41.776Z,99817.12
2023-01-02T12:56:51.552Z,99814.91
2023-01-02T13:02:25.625Z,99807.07
2023-01-02T13:07:36.040Z,99803.02
2023-01-02T13:12:40.067Z,99799.20
2023-01-02T13:17:51.269Z,99798.98
2023-01-02T13:23:13.108Z,99793.40
2023-01-02T13:28:17.851Z,99779.95
2023-01-02T13:33:30.282Z,99782.60
2023-01-02T13:38:36.788Z,99781.98
2023-01-02T13:43:40.483Z,99786.08
2023-01-02T13:48:47.788Z,99802.48
2023-01-02T13:53:53.054Z,99793.40
2023-01-02T13:58:56.665Z,99791.14
2023-01-02T14:04:13.385Z,99778.41
2023-01-02T14:09:21.204Z,99752.96
2023-01-02T14:14:52.062Z,99756.36
2023-01-02T14:20:20.218Z,99750.48
2023-01-02T14:25:24.697Z,99730.96
2023-01-02T14:30:30.971Z,99743.14
2023-01-02T14:35:39.815Z,99755.63
2023-01-02T14:40:44.886Z,99774.17
2023-01-02T14:45:53.102Z,99770.10
2023-01-02T14:51:01.858Z,99757.42
2023-01-02T14:56:16.917Z,99742.85
2023-01-02T15:01:43.844Z,99749.40
2023-01-02T15:07:09.913Z,99748.71
2023-01-02T15:12:43.756Z,99752.48
2023-01-02T15:17:49.701Z,99748.66
2023-01-02T15:22:54.919Z,99758.95
2023-01-02T15:27:58.396Z,99772.35
2023-01-02T15:33:02.241Z,99785.52
2023-01-02T15:38:18.840Z,99784.26
2023-01-02T15:43:41.912Z,99794.81
2023-01-02T15:48:46.241Z,99798.59
2023-01-02T15:53:54.334Z,99786.91
2023-01-02T15:59:01.572Z,99783.09
2023-01-02T16:04:05.815Z,99784.29
2023-01-02T16:09:20.432Z,99782.20
2023-01-02T16:14:53.592Z,99779.62
2023-01-02T16:20:00.577Z,99776.30
2023-01-02T16:25:12.193Z,99771.77
2023-01-02T16:30:38.081Z,99766.54
2023-01-02T16:36:00.599Z,99771.84
2023-01-02T16:41:12.114Z,99773.93
2023-01-02T16:46:16.572Z,99768.34
2023-01-02T16:51:20.665Z,99769.10
2023-01-02T16:56:24.606Z,99766.67
2023-01-02T17:01:28.219Z,99767.33
2023-01-02T17:06:31.943Z,99765.51
2023-01-02T17:11:35.755Z,99764.14
2023-01-02T17:16:39.252Z,99764.38
2023-01-02T17:21:42.890Z,99766.58
2023-01-02T17:26:47.426Z,99760.70
2023-01-02T17:31:50.871Z,99764.70
2023-01-02T17:36:55.502Z,99762.39
2023-01-02T17:41:58.998Z,99764.52
2023-01-02T17:47:30.799Z,99767.49
2023-01-02T17:52:26.924Z,99771.05
2023-01-02T17:57:30.439Z,99770.41
2023-01-02T18:02:34.259Z,99770.94
2023-01-02T18:07:38.180Z,99772.42
2023-01-02T18:12:43.033Z,99765.27
2023-01-02T18:17:46.538Z,99760.98
2023-01-02T18:22:51.127Z,99761.03
2023-01-02T18:28:21.237Z,99763.96
2023-01-02T18:33:27.065Z,99758.52
2023-01-02T18:38:36.750Z,99761.02
2023-01-02T18:43:41.807Z,99765.89
2023-01-02T18:48:45.938Z,99767.17
2023-01-02T18:53:50.780Z,99772.78
2023-01-02T18:59:13.038Z,99773.15
2023-01-02T19:04:28.307Z,99770.94
2023-01-02T19:09:34.894Z,99767.34
2023-01-02T19:14:41.619Z,99761.84
2023-01-02T19:19:46.048Z,99762.14
2023-01-02T19:24:50.187Z,99761.84
2023-01-02T19:29:54.305Z,99756.31
2023-01-02T19:35:03.142Z,99754.92
2023-01-02T19:40:19.757Z,99755.88
2023-01-02T19:45:28.158Z,99760.69
2023-01-02T19:50:32.334Z,99765.69
2023-01-02T19:55:36.970Z,99765.55
2023-01-02T20:00:40.584Z,99769.66
2023-01-02T20:05:44.107Z,99774.16
2023-01-02T20:10:48.019Z,99776.20
2023-01-02T20:15:51.624Z,99773.50
2023-01-02T20:20:55.277Z,99771.72
2023-01-02T20:25:58.783Z,99771.48
2023-01-02T20:31:02.542Z,99772.01
2023-01-02T20:36:13.178Z,99779.17
2023-01-02T20:41:17.113Z,99782.86
2023-01-02T20:46:20.872Z,99780.05
2023-01-02T20:51:24.459Z,99778.98
2023-01-02T20:56:29.101Z,99771.38
2023-01-02T21:01:32.689Z,99774.91
2023-01-02T21:06:36.735Z,99789.70
2023-01-02T21:11:40.354Z,99791.88
2023-01-02T21:16:43.922Z,99791.04
2023-01-02T21:21:47.586Z,99793.51
2023-01-02T21:26:51.109Z,99804.12
2023-01-02T21:31:54.762Z,99798.83
2023-01-02T21:37:00.182Z,99810.35
2023-01-02T21:42:16.134Z,99820.27
2023-01-02T21:47:19.723Z,99812.42
2023-01-02T21:52:23.224Z,99817.69
2023-01-02T21:58:02.630Z,99819.65
2023-01-02T22:02:53.672Z,99822.71
2023-01-02T22:07:58.168Z,99821.45
2023-01-02T22:13:01.868Z,99831.58
2023-01-02T22:18:05.592Z,99837.76
2023-01-02T22:23:09.198Z,99839.00
2023-01-02T22:28:12.713Z,99839.04
2023-01-02T22:33:16.304Z,99845.23
2023-01-02T22:38:19.949Z,99852.36
2023-01-02T22:43:24.853Z,99868.92
2023-01-02T22:48:32.845Z,99880.55
2023-01-02T22:53:37.675Z,99900.23
2023-01-02T22:58:41.799Z,99928.72
2023-01-02T23:03:46.917Z,99926.54
2023-01-02T23:08:51.735Z,99931.78
2023-01-02T23:13:56.951Z,99938.10
2023-01-02T23:19:15.939Z,99948.95
2023-01-02T23:24:27.173Z,99952.02
2023-01-02T23:29:30.842Z,99960.83
2023-01-02T23:34:34.256Z,99962.88
2023-01-02T23:39:37.873Z,99970.44
2023-01-02T23:44:42.314Z,99975.23
2023-01-02T23:49:45.630Z,99994.42
2023-01-02T23:54:49.154Z,100005.11
2023-01-02T23:59:52.654Z,100005.71
